Time;durP1;ratioP1;P1;durP2;ratioP2;P2;SDS_P1;SDS_P2;PMS_P1;PMS_P2;Temp;Humidity;BMP_temperature;BMP_pressure;BME280_temperature;BME280_humidity;BME280_pressure;Samples;Min_cycle;Max_cycle;Signal;HPM_P1;HPM_P2
2022/01/26 00:00:06;;;;;;;;;;;2.50;99.90;;;;;;5097593;28;20413;-82
2022/01/26 00:08:01;;;;;;;;;;;2.50;99.90;;;;;;5064788;28;19984;-82
2022/01/26 00:10:27;;;;;;;;;;;2.50;99.90;;;;;;5081339;28;20402;-82
2022/01/26 00:12:52;;;;;;;;;;;2.50;99.90;;;;;;5083463;28;19931;-82
2022/01/26 00:15:18;;;;;;;;;;;2.40;99.90;;;;;;5082541;28;19925;-82
2022/01/26 00:17:43;;;;;;;;;;;2.40;99.90;;;;;;5081478;28;19924;-82
2022/01/26 00:20:21;;;;;;;;;;;2.50;99.90;;;;;;5083265;28;20245;-82
2022/01/26 00:25:39;;;;;;;;;;;2.50;99.90;;;;;;5082303;28;19921;-82
2022/01/26 00:38:49;;;;;;;;;;;2.40;99.90;;;;;;5083688;28;20315;-82
2022/01/26 00:41:31;;;;;;;;;;;2.40;99.90;;;;;;5082142;28;19928;-82
2022/01/26 00:43:57;;;;;;;;;;;2.40;99.90;;;;;;5082253;28;20275;-82
2022/01/26 00:46:23;;;;;;;;;;;2.40;99.90;;;;;;5083266;28;19925;-82
2022/01/26 00:48:50;;;;;;;;;;;2.50;99.90;;;;;;5081367;28;19925;-82
2022/01/26 00:51:17;;;;;;;;;;;2.40;99.90;;;;;;5082978;28;19931;-82
2022/01/26 00:53:50;;;;;;;;;;;2.40;99.90;;;;;;5081981;28;19956;-82
2022/01/26 00:56:16;;;;;;;;;;;2.40;99.90;;;;;;5082460;28;20009;-82
2022/01/26 00:58:42;;;;;;;;;;;2.40;99.90;;;;;;5082368;28;19928;-82
2022/01/26 01:01:07;;;;;;;;;;;2.40;99.90;;;;;;5097694;28;19924;-82
2022/01/26 01:03:35;;;;;;;;;;;2.30;99.90;;;;;;5113606;28;20289;-82
2022/01/26 01:06:11;;;;;;;;;;;2.40;99.90;;;;;;5123252;28;19928;-82
2022/01/26 01:08:39;;;;;;;;;;;2.30;99.90;;;;;;5123065;28;19932;-82
2022/01/26 01:11:06;;;;;;;;;;;2.30;99.90;;;;;;5124404;28;19928;-82
2022/01/26 01:13:34;;;;;;;;;;;2.30;99.90;;;;;;5123277;28;20057;-82
2022/01/26 01:16:00;;;;;;;;;;;2.30;99.90;;;;;;5105412;28;20020;-82
2022/01/26 01:26:35;;;;;;;;;;;2.40;99.90;;;;;;5123056;28;19930;-82
2022/01/26 01:29:09;;;;;;;;;;;2.40;99.90;;;;;;5122054;28;20289;-82
2022/01/26 01:31:48;;;;;;;;;;;2.40;99.90;;;;;;5104754;28;19977;-82
2022/01/26 01:34:15;;;;;;;;;;;2.40;99.90;;;;;;5104090;28;19931;-82
2022/01/26 01:36:44;;;;;;;;;;;2.40;99.90;;;;;;5104626;28;20004;-82
2022/01/26 01:39:09;;;;;;;;;;;2.40;99.90;;;;;;5122454;28;19924;-82
2022/01/26 01:41:39;;;;;;;;;;;2.40;99.90;;;;;;5123148;28;19924;-83
2022/01/26 01:44:05;;;;;;;;;;;2.50;99.90;;;;;;5123400;28;20439;-82
2022/01/26 01:46:31;;;;;;;;;;;2.50;99.90;;;;;;5104066;28;19924;-82
2022/01/26 01:48:57;;;;;;;;;;;2.60;99.90;;;;;;5104259;28;19946;-82
2022/01/26 01:51:29;;;;;;;;;;;2.50;99.90;;;;;;5122685;28;19923;-82
2022/01/26 01:53:55;;;;;;;;;;;2.60;99.90;;;;;;5104629;28;20523;-82
2022/01/26 01:56:24;;;;;;;;;;;2.60;99.90;;;;;;5104226;28;19978;-82
2022/01/26 01:58:50;;;;;;;;;;;2.60;99.90;;;;;;5086307;28;19931;-82
2022/01/26 02:01:15;;;;;;;;;;;2.50;99.90;;;;;;5106320;28;20355;-82
2022/01/26 02:03:41;;;;;;;;;;;3.00;99.90;;;;;;5084114;28;19983;-82
2022/01/26 02:06:06;;;;;;;;;;;2.60;99.90;;;;;;5102105;28;19964;-82
2022/01/26 02:08:32;;;;;;;;;;;2.60;99.90;;;;;;5083518;28;19924;-82
2022/01/26 02:10:58;;;;;;;;;;;3.00;99.90;;;;;;5083044;28;19975;-82
2022/01/26 02:13:32;;;;;;;;;;;3.00;99.90;;;;;;5093041;28;19931;-82
2022/01/26 02:16:08;;;;;;;;;;;2.60;99.90;;;;;;5110341;28;19924;-82
2022/01/26 02:19:13;;;;;;;;;;;2.60;99.90;;;;;;5109078;28;19931;-82
2022/01/26 02:59:59;;;;;;;;;;;2.40;99.90;;;;;;5042050;28;20033;-82
2022/01/26 03:02:34;;;;;;;;;;;2.40;99.90;;;;;;5043166;28;20431;-82
2022/01/26 03:05:02;;;;;;;;;;;2.40;99.90;;;;;;5042747;28;19960;-82
2022/01/26 03:07:44;;;;;;;;;;;2.40;99.90;;;;;;5026346;28;19925;-82
2022/01/26 03:10:26;;;;;;;;;;;2.40;99.90;;;;;;5025441;28;19926;-82
2022/01/26 03:12:59;;;;;;;;;;;2.40;99.90;;;;;;5025118;28;19971;-82
2022/01/26 03:15:37;;;;;;;;;;;2.40;99.90;;;;;;5026560;28;19939;-82
2022/01/26 03:20:33;;;;;;;;;;;2.40;99.90;;;;;;5025482;28;19967;-82
2022/01/26 03:28:41;;;;;;;;;;;2.30;99.90;;;;;;5041393;28;19921;-82
2022/01/26 03:34:01;;;;;;;;;;;2.40;99.90;;;;;;5024785;28;20433;-82
2022/01/26 03:36:30;;;;;;;;;;;2.40;99.90;;;;;;5073408;28;20012;-82
2022/01/26 03:39:01;;;;;;;;;;;2.30;99.90;;;;;;5086147;28;19924;-82
2022/01/26 03:44:24;;;;;;;;;;;2.30;99.90;;;;;;5002851;28;19937;-82
2022/01/26 03:46:50;;;;;;;;;;;2.30;99.90;;;;;;5002103;28;19926;-82
2022/01/26 03:49:16;;;;;;;;;;;2.40;99.90;;;;;;5002625;28;20384;-82
2022/01/26 03:51:41;;;;;;;;;;;2.30;99.90;;;;;;5002473;28;19926;-82
2022/01/26 03:54:07;;;;;;;;;;;2.30;99.90;;;;;;5001047;28;20355;-82
2022/01/26 03:56:33;;;;;;;;;;;2.30;99.90;;;;;;4984510;28;19965;-82
2022/01/26 03:58:59;;;;;;;;;;;2.30;99.90;;;;;;4986167;28;20447;-82
2022/01/26 04:01:24;;;;;;;;;;;2.30;99.90;;;;;;5002034;28;19973;-82
2022/01/26 04:03:50;;;;;;;;;;;2.30;99.90;;;;;;4986159;28;20021;-82
2022/01/26 04:06:16;;;;;;;;;;;2.30;99.90;;;;;;4985552;28;19969;-82
2022/01/26 04:08:43;;;;;;;;;;;2.30;99.90;;;;;;4985603;28;20331;-83
2022/01/26 04:13:44;;;;;;;;;;;2.30;99.90;;;;;;4985020;28;19980;-82
2022/01/26 04:16:10;;;;;;;;;;;2.30;99.90;;;;;;5002028;28;19925;-82
2022/01/26 04:18:38;;;;;;;;;;;2.30;99.90;;;;;;5001729;28;20310;-82
2022/01/26 04:26:18;;;;;;;;;;;2.30;99.90;;;;;;5085591;28;19977;-82
2022/01/26 04:28:51;;;;;;;;;;;2.20;99.90;;;;;;5068792;28;20027;-82
2022/01/26 04:31:19;;;;;;;;;;;2.20;99.90;;;;;;5085428;28;19975;-82
2022/01/26 04:33:45;;;;;;;;;;;2.30;99.90;;;;;;5103338;28;19928;-82
2022/01/26 04:36:14;;;;;;;;;;;2.20;99.90;;;;;;5068627;28;20293;-82
2022/01/26 04:38:46;;;;;;;;;;;2.20;99.90;;;;;;5103758;28;19981;-82
2022/01/26 04:43:42;;;;;;;;;;;2.20;99.90;;;;;;5104639;28;19924;-82
2022/01/26 04:46:09;;;;;;;;;;;2.20;99.90;;;;;;5112740;28;19935;-82
2022/01/26 04:48:34;;;;;;;;;;;2.20;99.90;;;;;;5112162;28;19928;-82
2022/01/26 04:51:00;;;;;;;;;;;2.20;99.90;;;;;;5112447;28;19930;-82
2022/01/26 04:53:25;;;;;;;;;;;2.20;99.90;;;;;;5077439;28;19931;-82
2022/01/26 04:55:52;;;;;;;;;;;2.20;99.90;;;;;;5105194;28;19924;-82
2022/01/26 04:58:18;;;;;;;;;;;2.20;99.90;;;;;;5086180;28;19967;-82
2022/01/26 05:00:43;;;;;;;;;;;2.10;99.90;;;;;;5085288;28;19972;-82
2022/01/26 05:03:09;;;;;;;;;;;2.20;99.90;;;;;;5104650;28;19924;-82
2022/01/26 05:05:34;;;;;;;;;;;2.20;99.90;;;;;;5069254;28;19928;-82
2022/01/26 05:08:00;;;;;;;;;;;2.20;99.90;;;;;;5104254;28;20426;-82
2022/01/26 05:10:25;;;;;;;;;;;2.20;99.90;;;;;;5069188;28;19924;-82
2022/01/26 05:12:51;;;;;;;;;;;2.20;99.90;;;;;;5068735;28;19927;-82
2022/01/26 05:15:21;;;;;;;;;;;2.20;99.90;;;;;;5103886;28;19925;-82
2022/01/26 05:17:46;;;;;;;;;;;2.10;99.90;;;;;;5103379;28;19930;-82
2022/01/26 05:20:12;;;;;;;;;;;2.20;99.90;;;;;;5068434;28;20014;-82
2022/01/26 05:22:40;;;;;;;;;;;2.20;99.90;;;;;;5085189;28;19950;-82
2022/01/26 05:25:06;;;;;;;;;;;2.20;99.90;;;;;;5085729;28;19930;-82
2022/01/26 05:27:31;;;;;;;;;;;2.20;99.90;;;;;;5085309;28;19956;-82
2022/01/26 05:29:57;;;;;;;;;;;2.20;99.90;;;;;;5102781;28;20443;-82
2022/01/26 05:32:22;;;;;;;;;;;2.20;99.90;;;;;;5103674;28;19986;-82
2022/01/26 05:34:48;;;;;;;;;;;2.20;99.90;;;;;;5068718;28;19924;-82
2022/01/26 05:37:13;;;;;;;;;;;2.20;99.90;;;;;;5103375;28;19928;-82
2022/01/26 05:39:39;;;;;;;;;;;2.20;99.90;;;;;;5102902;28;19924;-82
2022/01/26 05:42:06;;;;;;;;;;;2.20;99.90;;;;;;5102466;28;19928;-82
2022/01/26 05:44:31;;;;;;;;;;;2.20;99.90;;;;;;5084376;28;19924;-82
2022/01/26 05:46:57;;;;;;;;;;;2.20;99.90;;;;;;5102980;28;19932;-82
2022/01/26 05:49:22;;;;;;;;;;;2.10;99.90;;;;;;5084037;28;19946;-82
2022/01/26 05:51:48;;;;;;;;;;;2.10;99.90;;;;;;5102389;28;19979;-82
2022/01/26 05:54:15;;;;;;;;;;;2.20;99.90;;;;;;5067514;28;19935;-82
2022/01/26 05:56:42;;;;;;;;;;;2.20;99.90;;;;;;5067576;28;19973;-82
2022/01/26 05:59:08;;;;;;;;;;;2.20;99.90;;;;;;5107942;28;19924;-82
2022/01/26 06:01:34;;;;;;;;;;;2.20;99.90;;;;;;5110664;28;19931;-82
2022/01/26 06:03:59;;;;;;;;;;;2.20;99.90;;;;;;5130641;28;19924;-82
2022/01/26 06:06:25;;;;;;;;;;;2.20;99.90;;;;;;5130563;28;19967;-82
2022/01/26 06:08:50;;;;;;;;;;;2.20;99.90;;;;;;5123649;28;19963;-82
2022/01/26 06:11:16;;;;;;;;;;;2.20;99.90;;;;;;5123760;28;19924;-82
2022/01/26 06:13:41;;;;;;;;;;;2.30;99.90;;;;;;5107684;28;19927;-82
2022/01/26 06:16:07;;;;;;;;;;;2.30;99.90;;;;;;5108778;28;20298;-82
2022/01/26 06:18:33;;;;;;;;;;;2.30;99.90;;;;;;5109053;28;19924;-82
2022/01/26 06:20:58;;;;;;;;;;;2.20;99.90;;;;;;5127890;28;19931;-82
2022/01/26 06:23:25;;;;;;;;;;;2.30;99.90;;;;;;5127602;28;19935;-82
2022/01/26 06:25:55;;;;;;;;;;;2.30;99.90;;;;;;5127072;28;20422;-82
2022/01/26 06:28:21;;;;;;;;;;;2.30;99.90;;;;;;5127267;28;19924;-83
2022/01/26 06:30:48;;;;;;;;;;;2.30;99.90;;;;;;5127302;28;19924;-82
2022/01/26 06:33:14;;;;;;;;;;;2.40;99.90;;;;;;5108913;28;19924;-82
2022/01/26 06:35:40;;;;;;;;;;;2.40;99.90;;;;;;5108689;28;19931;-82
2022/01/26 06:38:05;;;;;;;;;;;2.40;99.90;;;;;;5126930;28;19923;-82
2022/01/26 06:40:31;;;;;;;;;;;2.40;99.90;;;;;;5091900;28;19926;-82
2022/01/26 06:43:02;;;;;;;;;;;2.70;99.90;;;;;;5107907;28;19924;-82
2022/01/26 06:45:32;;;;;;;;;;;2.40;99.90;;;;;;5108038;28;19981;-82
2022/01/26 06:49:28;;;;;;;;;;;2.40;99.90;;;;;;5127158;28;19924;-82
2022/01/26 06:50:52;;;;;;;;;;;2.50;99.90;;;;;;5112143;28;19931;-82
2022/01/26 06:53:18;;;;;;;;;;;2.40;99.90;;;;;;5108429;28;19924;-82
2022/01/26 06:55:43;;;;;;;;;;;2.50;99.90;;;;;;5107783;28;19965;-82
2022/01/26 06:58:09;;;;;;;;;;;2.50;99.90;;;;;;5126615;28;19924;-82
2022/01/26 07:00:34;;;;;;;;;;;2.50;99.90;;;;;;5116467;28;19973;-82
2022/01/26 07:03:00;;;;;;;;;;;3.00;99.90;;;;;;5105575;28;19930;-82
2022/01/26 07:05:26;;;;;;;;;;;2.50;99.90;;;;;;5086637;28;19928;-82
2022/01/26 07:07:51;;;;;;;;;;;2.60;99.90;;;;;;5105469;28;19924;-82
2022/01/26 07:10:17;;;;;;;;;;;2.60;99.90;;;;;;5087408;28;20015;-82
2022/01/26 07:12:43;;;;;;;;;;;2.60;99.90;;;;;;5105943;28;19924;-82
2022/01/26 07:21:22;;;;;;;;;;;2.70;99.90;;;;;;5105134;28;20280;-82
2022/01/26 07:23:32;;;;;;;;;;;2.70;99.90;;;;;;5085638;28;19978;-82
2022/01/26 07:25:57;;;;;;;;;;;2.70;99.90;;;;;;5086813;28;20290;-82
2022/01/26 07:28:23;;;;;;;;;;;2.70;99.90;;;;;;5105333;28;19927;-82
2022/01/26 07:30:50;;;;;;;;;;;2.80;99.90;;;;;;5085870;28;19924;-82
2022/01/26 07:33:16;;;;;;;;;;;2.80;99.90;;;;;;5086102;28;19927;-82
2022/01/26 07:35:41;;;;;;;;;;;2.90;99.90;;;;;;5085960;28;20302;-82
2022/01/26 07:38:07;;;;;;;;;;;2.90;99.90;;;;;;5087123;28;19955;-82
2022/01/26 07:40:32;;;;;;;;;;;2.90;99.90;;;;;;5105173;28;19924;-82
2022/01/26 07:42:58;;;;;;;;;;;3.00;99.90;;;;;;5085829;28;19924;-82
2022/01/26 07:45:23;;;;;;;;;;;3.00;99.90;;;;;;5085897;28;19999;-82
2022/01/26 07:47:52;;;;;;;;;;;3.00;99.90;;;;;;5103043;28;19924;-82
2022/01/26 07:50:19;;;;;;;;;;;3.40;99.90;;;;;;5104255;28;19967;-82
2022/01/26 07:52:45;;;;;;;;;;;3.10;99.90;;;;;;5104208;28;19936;-82
2022/01/26 07:55:14;;;;;;;;;;;3.10;99.90;;;;;;5104821;28;19994;-82
2022/01/26 07:57:40;;;;;;;;;;;3.10;99.90;;;;;;5103518;28;19931;-82
2022/01/26 08:00:06;;;;;;;;;;;3.10;99.90;;;;;;5092055;28;19973;-82
2022/01/26 08:02:32;;;;;;;;;;;3.10;99.90;;;;;;5124404;28;19923;-82
2022/01/26 08:04:58;;;;;;;;;;;3.10;99.90;;;;;;5123488;28;19930;-82
2022/01/26 08:07:23;;;;;;;;;;;3.20;99.90;;;;;;5124049;28;19931;-82
2022/01/26 08:09:49;;;;;;;;;;;3.20;99.90;;;;;;5124957;28;19984;-82
2022/01/26 08:12:15;;;;;;;;;;;3.20;99.90;;;;;;5087833;28;19927;-82
2022/01/26 08:14:41;;;;;;;;;;;3.20;99.90;;;;;;5105386;28;19924;-82
2022/01/26 08:17:07;;;;;;;;;;;3.30;99.90;;;;;;5106119;28;20300;-82
2022/01/26 08:19:33;;;;;;;;;;;3.20;99.90;;;;;;5106574;28;19927;-82
2022/01/26 08:22:01;;;;;;;;;;;3.30;99.90;;;;;;5106224;28;20450;-82
2022/01/26 08:24:27;;;;;;;;;;;3.30;99.90;;;;;;5118165;28;20297;-83
2022/01/26 08:26:55;;;;;;;;;;;3.30;99.90;;;;;;5115951;28;20014;-83
2022/01/26 08:32:15;;;;;;;;;;;3.30;99.90;;;;;;5016797;28;19976;-84
2022/01/26 08:34:41;;;;;;;;;;;3.30;99.90;;;;;;5000403;28;19975;-83
2022/01/26 08:37:07;;;;;;;;;;;3.30;99.90;;;;;;5015808;28;20380;-84
2022/01/26 08:39:33;;;;;;;;;;;3.40;99.90;;;;;;5016527;28;19964;-83
2022/01/26 08:41:59;;;;;;;;;;;3.30;99.90;;;;;;5032801;28;20495;-84
2022/01/26 08:44:25;;;;;;;;;;;3.30;99.90;;;;;;5016433;28;19921;-84
2022/01/26 08:46:51;;;;;;;;;;;3.30;99.90;;;;;;5016395;28;19990;-84
2022/01/26 08:49:17;;;;;;;;;;;3.30;99.90;;;;;;5016422;28;19925;-83
2022/01/26 08:51:43;;;;;;;;;;;3.30;99.90;;;;;;5032934;28;20265;-84
2022/01/26 08:54:10;;;;;;;;;;;3.30;99.90;;;;;;5016220;28;19947;-84
2022/01/26 08:56:36;;;;;;;;;;;3.30;99.90;;;;;;5016256;28;19925;-84
2022/01/26 08:59:02;;;;;;;;;;;3.30;99.90;;;;;;5016176;28;19935;-84
2022/01/26 09:01:27;;;;;;;;;;;3.30;99.90;;;;;;5015513;28;19932;-84
2022/01/26 09:03:53;;;;;;;;;;;3.40;99.90;;;;;;4996257;28;19937;-83
2022/01/26 09:06:19;;;;;;;;;;;3.40;99.90;;;;;;4997325;28;19932;-83
2022/01/26 09:08:46;;;;;;;;;;;3.40;99.90;;;;;;5041964;28;19924;-83
2022/01/26 09:11:12;;;;;;;;;;;3.40;99.90;;;;;;5061025;28;19928;-84
2022/01/26 09:13:38;;;;;;;;;;;3.40;99.90;;;;;;5076642;28;20045;-84
2022/01/26 09:16:07;;;;;;;;;;;3.40;99.90;;;;;;5076166;28;20014;-83
2022/01/26 09:18:45;;;;;;;;;;;3.40;99.90;;;;;;5076467;28;20435;-83
2022/01/26 09:21:11;;;;;;;;;;;3.40;99.90;;;;;;5076059;28;20023;-83
2022/01/26 09:23:36;;;;;;;;;;;3.40;99.90;;;;;;5076168;28;19967;-83
2022/01/26 09:26:03;;;;;;;;;;;3.40;99.90;;;;;;5076355;28;19924;-84
2022/01/26 09:28:28;;;;;;;;;;;3.50;99.90;;;;;;5094402;28;19970;-84
2022/01/26 09:30:54;;;;;;;;;;;3.50;99.90;;;;;;5076602;28;20359;-84
2022/01/26 09:33:19;;;;;;;;;;;3.50;99.90;;;;;;5075921;28;19924;-84
2022/01/26 09:35:45;;;;;;;;;;;3.50;99.90;;;;;;5059244;28;19928;-84
2022/01/26 09:38:11;;;;;;;;;;;3.50;99.90;;;;;;5075945;28;20370;-84
2022/01/26 09:40:36;;;;;;;;;;;4.00;99.90;;;;;;5075849;28;19924;-84
2022/01/26 09:43:02;;;;;;;;;;;3.50;99.90;;;;;;5075733;28;20057;-84
2022/01/26 09:45:29;;;;;;;;;;;3.60;99.90;;;;;;5059627;28;19993;-84
2022/01/26 09:47:56;;;;;;;;;;;3.60;99.90;;;;;;5088069;28;19931;-84
2022/01/26 09:50:21;;;;;;;;;;;4.30;99.90;;;;;;5095452;28;20378;-84
2022/01/26 09:52:48;;;;;;;;;;;3.60;99.90;;;;;;5077334;28;19924;-84
2022/01/26 09:55:14;;;;;;;;;;;3.60;99.90;;;;;;5075561;28;19923;-83
2022/01/26 09:57:43;;;;;;;;;;;3.60;99.90;;;;;;5079416;28;20017;-81
2022/01/26 10:00:09;;;;;;;;;;;3.60;99.90;;;;;;5089321;28;19969;-82
2022/01/26 10:02:35;;;;;;;;;;;3.60;99.90;;;;;;5118797;28;19967;-83
2022/01/26 10:05:07;;;;;;;;;;;3.70;99.90;;;;;;5096478;28;19923;-83
2022/01/26 10:10:31;;;;;;;;;;;3.70;99.90;;;;;;5096613;28;19923;-83
2022/01/26 10:15:45;;;;;;;;;;;3.70;99.90;;;;;;5097347;28;19923;-83
2022/01/26 10:18:18;;;;;;;;;;;3.70;99.90;;;;;;5079462;28;19982;-83
2022/01/26 10:20:43;;;;;;;;;;;3.70;99.90;;;;;;5103224;28;19931;-83
2022/01/26 10:23:13;;;;;;;;;;;3.70;99.90;;;;;;5113495;28;20413;-83
2022/01/26 10:25:41;;;;;;;;;;;3.70;99.90;;;;;;5113527;28;19971;-83
2022/01/26 10:28:09;;;;;;;;;;;3.70;99.90;;;;;;5096469;28;19939;-83
2022/01/26 10:30:35;;;;;;;;;;;3.80;99.90;;;;;;5098055;28;20402;-83
2022/01/26 10:33:06;;;;;;;;;;;3.80;99.90;;;;;;5096417;28;19930;-83
2022/01/26 10:35:31;;;;;;;;;;;3.80;99.90;;;;;;5096147;28;19924;-83
2022/01/26 10:37:57;;;;;;;;;;;3.80;99.90;;;;;;5079511;28;19931;-83
2022/01/26 10:40:25;;;;;;;;;;;3.80;99.90;;;;;;5097205;28;19919;-83
2022/01/26 10:42:58;;;;;;;;;;;3.80;99.90;;;;;;5079287;28;19924;-83
2022/01/26 10:45:38;;;;;;;;;;;3.90;99.90;;;;;;5096401;28;20389;-83
2022/01/26 10:48:11;;;;;;;;;;;3.90;99.90;;;;;;5114327;28;20014;-83
2022/01/26 10:53:19;;;;;;;;;;;3.90;99.90;;;;;;5114593;28;19951;-83
2022/01/26 10:55:45;;;;;;;;;;;3.90;99.90;;;;;;5114773;28;19935;-83
2022/01/26 10:58:10;;;;;;;;;;;3.90;99.90;;;;;;5096277;28;20322;-83
2022/01/26 11:00:37;;;;;;;;;;;4.00;99.90;;;;;;5088799;28;19966;-84
2022/01/26 11:03:04;;;;;;;;;;;4.00;99.90;;;;;;5078867;28;19928;-84
2022/01/26 11:05:29;;;;;;;;;;;4.00;99.90;;;;;;5078979;28;19924;-84
2022/01/26 11:07:57;;;;;;;;;;;4.00;99.90;;;;;;5062246;28;19947;-84
2022/01/26 11:10:30;;;;;;;;;;;4.00;99.90;;;;;;5079523;28;19931;-84
2022/01/26 11:12:55;;;;;;;;;;;4.00;99.90;;;;;;5079141;28;20006;-84
2022/01/26 11:15:22;;;;;;;;;;;4.00;99.90;;;;;;5062182;28;20480;-83
2022/01/26 11:17:48;;;;;;;;;;;4.10;99.90;;;;;;5078942;28;19988;-83
2022/01/26 11:20:20;;;;;;;;;;;4.10;99.90;;;;;;5097270;28;19921;-84
2022/01/26 11:22:50;;;;;;;;;;;4.10;99.90;;;;;;5078645;28;19932;-85
2022/01/26 11:25:16;;;;;;;;;;;4.10;99.90;;;;;;5078522;28;19920;-85
2022/01/26 11:27:42;;;;;;;;;;;4.70;99.90;;;;;;5078527;28;19924;-85
2022/01/26 11:30:33;;;;;;;;;;;4.00;99.90;;;;;;5061504;28;19977;-85
2022/01/26 11:33:03;;;;;;;;;;;4.00;99.90;;;;;;5074740;28;20010;-85
2022/01/26 11:35:31;;;;;;;;;;;4.00;99.90;;;;;;5061742;28;19972;-84
2022/01/26 11:46:22;;;;;;;;;;;4.00;99.90;;;;;;4998032;28;20024;-85
2022/01/26 11:48:57;;;;;;;;;;;4.00;99.90;;;;;;5003474;28;19968;-85
2022/01/26 11:51:23;;;;;;;;;;;4.00;99.90;;;;;;5013573;28;19909;-85
2022/01/26 11:53:48;;;;;;;;;;;4.10;99.90;;;;;;5010846;28;19922;-86
2022/01/26 11:56:20;;;;;;;;;;;4.10;99.90;;;;;;5015721;28;19953;-85
2022/01/26 11:58:47;;;;;;;;;;;4.10;99.90;;;;;;5009953;28;19933;-85
2022/01/26 12:01:28;;;;;;;;;;;4.10;99.90;;;;;;5013078;28;19948;-85
2022/01/26 12:03:59;;;;;;;;;;;4.10;99.90;;;;;;5017493;28;19929;-89
2022/01/26 12:06:29;;;;;;;;;;;4.10;99.90;;;;;;5017598;28;19963;-84
2022/01/26 12:08:56;;;;;;;;;;;4.00;99.90;;;;;;5017492;28;20319;-84
2022/01/26 12:11:23;;;;;;;;;;;4.00;99.90;;;;;;5016059;28;19932;-85
2022/01/26 12:13:56;;;;;;;;;;;4.00;99.90;;;;;;5016758;28;19971;-85
2022/01/26 12:16:24;;;;;;;;;;;4.00;99.90;;;;;;5033816;28;20407;-85
2022/01/26 12:19:12;;;;;;;;;;;4.80;99.90;;;;;;5093003;28;19968;-85
2022/01/26 12:38:30;;;;;;;;;;;4.10;99.90;;;;;;5097423;28;19970;-84
2022/01/26 12:43:43;;;;;;;;;;;4.40;99.90;;;;;;5097090;28;20370;-85
2022/01/26 12:46:10;;;;;;;;;;;4.10;99.90;;;;;;5097061;28;20378;-85
2022/01/26 12:48:39;;;;;;;;;;;4.10;99.90;;;;;;5083660;28;19963;-85
2022/01/26 12:51:06;;;;;;;;;;;4.00;99.90;;;;;;5096733;28;19931;-85
2022/01/26 12:53:35;;;;;;;;;;;4.80;99.90;;;;;;5096631;28;19985;-85
2022/01/26 12:56:05;;;;;;;;;;;4.30;99.90;;;;;;5096725;28;20377;-85
2022/01/26 12:58:33;;;;;;;;;;;4.10;99.90;;;;;;5096735;28;19923;-85
2022/01/26 13:01:04;;;;;;;;;;;4.50;99.90;;;;;;5096886;28;20010;-85
2022/01/26 13:03:37;;;;;;;;;;;4.10;99.90;;;;;;5096635;28;19931;-85
2022/01/26 13:06:07;;;;;;;;;;;4.20;99.90;;;;;;5079579;28;20021;-85
2022/01/26 13:08:59;;;;;;;;;;;4.20;99.90;;;;;;5096799;28;19931;-85
2022/01/26 13:11:29;;;;;;;;;;;4.20;99.90;;;;;;5092291;28;19930;-85
2022/01/26 13:16:40;;;;;;;;;;;4.30;99.90;;;;;;5096506;28;19924;-85
2022/01/26 13:22:03;;;;;;;;;;;4.30;99.90;;;;;;5096200;28;20023;-85
2022/01/26 13:27:21;;;;;;;;;;;4.50;99.90;;;;;;5096323;28;20404;-85
2022/01/26 13:35:30;;;;;;;;;;;4.60;99.90;;;;;;5112639;28;19924;-84
2022/01/26 13:38:09;;;;;;;;;;;4.60;99.90;;;;;;5115850;28;19965;-85
2022/01/26 13:43:37;;;;;;;;;;;4.60;99.90;;;;;;5106636;28;19930;-85
2022/01/26 13:51:11;;;;;;;;;;;4.70;99.90;;;;;;5096657;28;19924;-85
2022/01/26 13:53:49;;;;;;;;;;;4.70;99.90;;;;;;5096101;28;19990;-86
2022/01/26 13:56:30;;;;;;;;;;;4.70;99.90;;;;;;5079176;28;19928;-86
2022/01/26 13:59:23;;;;;;;;;;;5.60;99.90;;;;;;5095860;28;19934;-86
2022/01/26 14:01:46;;;;;;;;;;;4.80;99.90;;;;;;5076303;28;19938;-86
2022/01/26 14:04:12;;;;;;;;;;;4.80;99.90;;;;;;5058903;28;19924;-86
2022/01/26 14:06:38;;;;;;;;;;;4.80;99.90;;;;;;5059195;28;20378;-86
2022/01/26 14:09:04;;;;;;;;;;;4.80;99.90;;;;;;5058964;28;19931;-86
2022/01/26 14:11:29;;;;;;;;;;;4.80;99.90;;;;;;5058715;28;19968;-86
2022/01/26 14:13:57;;;;;;;;;;;4.80;99.90;;;;;;5059229;28;19935;-86
2022/01/26 14:16:24;;;;;;;;;;;5.00;99.90;;;;;;5075301;28;19977;-86
2022/01/26 14:26:29;;;;;;;;;;;5.30;99.90;;;;;;5075766;28;19928;-86
2022/01/26 14:28:55;;;;;;;;;;;4.90;99.90;;;;;;5075393;28;20410;-86
2022/01/26 14:31:28;;;;;;;;;;;4.90;99.90;;;;;;5058851;28;19924;-86
2022/01/26 14:34:44;;;;;;;;;;;5.50;99.90;;;;;;5076218;28;19924;-86
2022/01/26 15:31:41;;;;;;;;;;;5.00;99.90;;;;;;5081398;28;19924;-87
2022/01/26 15:33:50;;;;;;;;;;;5.10;99.90;;;;;;5058300;28;20299;-86
2022/01/26 15:42:26;;;;;;;;;;;5.10;99.90;;;;;;5094760;28;19963;-86
2022/01/26 16:38:00;;;;;;;;;;;5.20;99.90;;;;;;5073996;28;19976;-86
2022/01/26 17:02:53;;;;;;;;;;;5.30;99.90;;;;;;5096967;28;19924;-86
2022/01/26 17:43:17;;;;;;;;;;;5.40;99.90;;;;;;5096357;28;19969;-84
2022/01/26 18:16:20;;;;;;;;;;;5.60;99.90;;;;;;4922629;29;19927;-85
2022/01/26 18:32:46;;;;;;;;;;;5.60;99.90;;;;;;4922498;29;19927;-84
2022/01/26 18:46:21;;;;;;;;;;;6.00;99.90;;;;;;4960349;28;19922;-84
2022/01/26 18:51:36;;;;;;;;;;;5.70;99.90;;;;;;5055818;28;19925;-84
2022/01/26 18:54:02;;;;;;;;;;;6.20;99.90;;;;;;5039166;28;19974;-85
2022/01/26 18:56:28;;;;;;;;;;;5.70;99.90;;;;;;5038851;28;19929;-84
2022/01/26 18:58:54;;;;;;;;;;;5.70;99.90;;;;;;5038783;28;19978;-84
2022/01/26 19:01:19;;;;;;;;;;;5.70;99.90;;;;;;5087954;28;20019;-84
2022/01/26 19:03:45;;;;;;;;;;;6.00;99.90;;;;;;5079337;28;20351;-85
2022/01/26 19:06:10;;;;;;;;;;;5.60;99.90;;;;;;5095778;28;19949;-84
2022/01/26 19:08:38;;;;;;;;;;;5.70;99.90;;;;;;5095751;28;19924;-84
2022/01/26 19:11:04;;;;;;;;;;;6.30;99.90;;;;;;5095822;28;19924;-84
2022/01/26 19:13:31;;;;;;;;;;;5.70;99.90;;;;;;5095569;28;19947;-85
2022/01/26 19:16:03;;;;;;;;;;;6.10;99.90;;;;;;5097388;28;19939;-84
2022/01/26 19:21:38;;;;;;;;;;;5.80;99.90;;;;;;5037558;28;19928;-85
2022/01/26 19:26:37;;;;;;;;;;;5.60;99.90;;;;;;5037777;28;19931;-85
2022/01/26 19:29:15;;;;;;;;;;;5.60;99.90;;;;;;5020802;28;19925;-84
2022/01/26 19:32:13;;;;;;;;;;;5.60;99.90;;;;;;5039826;28;19933;-85
2022/01/26 19:51:04;;;;;;;;;;;5.50;99.90;;;;;;5040538;28;19931;-85
2022/01/26 19:53:30;;;;;;;;;;;5.60;99.90;;;;;;5037051;28;19925;-85
2022/01/26 19:55:55;;;;;;;;;;;5.50;99.90;;;;;;5036931;28;20035;-85
2022/01/26 19:58:21;;;;;;;;;;;5.50;99.90;;;;;;5041735;28;19924;-85
2022/01/26 20:00:47;;;;;;;;;;;6.00;99.90;;;;;;5066232;28;19931;-85
2022/01/26 20:03:16;;;;;;;;;;;5.70;99.90;;;;;;5057649;28;20322;-85
2022/01/26 20:05:42;;;;;;;;;;;5.40;99.90;;;;;;5074105;28;20359;-85
2022/01/26 20:08:18;;;;;;;;;;;5.80;99.90;;;;;;5074744;28;19924;-85
2022/01/26 20:10:51;;;;;;;;;;;5.30;99.90;;;;;;5057896;28;19928;-85
2022/01/26 20:13:27;;;;;;;;;;;5.30;99.90;;;;;;5057360;28;19932;-85
2022/01/26 20:15:52;;;;;;;;;;;5.30;99.90;;;;;;5057451;28;20333;-85
2022/01/26 20:18:20;;;;;;;;;;;5.30;99.90;;;;;;5057492;28;19924;-85
2022/01/26 20:20:45;;;;;;;;;;;5.20;99.90;;;;;;5074322;28;20390;-85
2022/01/26 20:23:14;;;;;;;;;;;5.60;99.90;;;;;;5074314;28;19932;-85
2022/01/26 20:25:40;;;;;;;;;;;5.90;99.90;;;;;;5073991;28;19950;-85
2022/01/26 20:28:08;;;;;;;;;;;5.80;99.90;;;;;;5057567;28;19932;-84
2022/01/26 20:30:37;;;;;;;;;;;5.80;99.90;;;;;;5097124;28;19908;-85
2022/01/26 20:33:03;;;;;;;;;;;5.50;99.90;;;;;;5072878;28;19964;-84
2022/01/26 20:35:29;;;;;;;;;;;5.20;99.90;;;;;;5073744;28;19976;-84
2022/01/26 20:37:55;;;;;;;;;;;5.60;99.90;;;;;;5074039;28;20366;-84
2022/01/26 20:40:20;;;;;;;;;;;5.60;99.90;;;;;;5073788;28;19921;-84
2022/01/26 20:42:46;;;;;;;;;;;5.20;99.90;;;;;;5057063;28;19928;-85
2022/01/26 20:45:18;;;;;;;;;;;5.60;99.90;;;;;;5073766;28;19920;-83
2022/01/26 20:47:43;;;;;;;;;;;5.10;99.90;;;;;;5073639;28;19925;-83
2022/01/26 20:50:09;;;;;;;;;;;5.30;99.90;;;;;;5074836;28;20375;-83
2022/01/26 20:52:36;;;;;;;;;;;5.10;99.90;;;;;;5073377;28;19924;-83
2022/01/26 20:55:03;;;;;;;;;;;5.10;99.90;;;;;;5073150;28;19925;-83
2022/01/26 20:57:29;;;;;;;;;;;5.10;99.90;;;;;;5073747;28;20274;-83
2022/01/26 20:59:55;;;;;;;;;;;5.10;99.90;;;;;;5077377;28;19931;-83
2022/01/26 21:02:21;;;;;;;;;;;5.10;99.90;;;;;;5093611;28;19978;-83
2022/01/26 21:04:46;;;;;;;;;;;5.70;99.90;;;;;;5095291;28;20382;-83
2022/01/26 21:07:12;;;;;;;;;;;5.10;99.90;;;;;;5096691;28;19998;-83
2022/01/26 21:09:37;;;;;;;;;;;5.10;99.90;;;;;;5079520;28;19923;-83
2022/01/26 21:12:03;;;;;;;;;;;5.10;99.90;;;;;;5096657;28;19931;-83
2022/01/26 21:14:29;;;;;;;;;;;5.10;99.90;;;;;;5079987;28;19931;-83
2022/01/26 21:16:55;;;;;;;;;;;5.10;99.90;;;;;;5097222;28;19964;-83
2022/01/26 21:19:21;;;;;;;;;;;5.10;99.90;;;;;;5096602;28;19923;-83
2022/01/26 21:21:46;;;;;;;;;;;5.10;99.90;;;;;;5096420;28;19923;-83
2022/01/26 21:24:12;;;;;;;;;;;5.50;99.90;;;;;;5114953;28;19923;-83
2022/01/26 21:26:37;;;;;;;;;;;5.00;99.90;;;;;;5096364;28;19974;-83
2022/01/26 21:29:03;;;;;;;;;;;5.30;99.90;;;;;;5083305;28;19962;-83
2022/01/26 21:31:29;;;;;;;;;;;5.00;99.90;;;;;;5098181;28;19986;-83
2022/01/26 21:33:54;;;;;;;;;;;5.00;99.90;;;;;;5079499;28;20333;-83